createdAt,value
2019-01-23T00:01:29.889Z,66.41
2019-01-23T00:04:34.344Z,66.38
2019-01-23T00:07:38.787Z,66.37
2019-01-23T00:10:43.557Z,66.42
2019-01-23T00:13:48.288Z,66.47
2019-01-23T00:16:53.024Z,66.28
2019-01-23T00:19:57.471Z,66.56
2019-01-23T00:23:02.176Z,67.04
2019-01-23T00:26:06.906Z,67.17
2019-01-23T00:29:11.355Z,67.20
2019-01-23T00:32:15.798Z,67.75
2019-01-23T00:35:20.247Z,67.76
2019-01-23T00:38:24.679Z,67.62
2019-01-23T00:41:29.368Z,67.86
2019-01-23T00:44:34.164Z,67.48
2019-01-23T00:47:38.607Z,67.24
2019-01-23T00:50:43.322Z,67.17
2019-01-23T00:53:48.046Z,67.75
2019-01-23T00:56:52.487Z,66.99
2019-01-23T00:59:56.937Z,66.28
2019-01-23T01:03:01.450Z,66.68
2019-01-23T01:06:06.361Z,66.99
2019-01-23T01:09:11.045Z,67.16
2019-01-23T01:12:15.495Z,66.95
2019-01-23T01:15:20.350Z,66.82
2019-01-23T01:18:25.301Z,66.93
2019-01-23T01:21:29.751Z,67.76
2019-01-23T01:24:34.202Z,67.67
2019-01-23T01:27:38.958Z,67.77
2019-01-23T01:30:43.405Z,67.94
2019-01-23T01:33:48.117Z,68.21
2019-01-23T01:36:52.866Z,67.92
2019-01-23T01:39:57.577Z,67.24
2019-01-23T01:43:02.022Z,67.25
2019-01-23T01:46:06.476Z,67.45
2019-01-23T01:49:11.275Z,67.35
2019-01-23T01:52:15.987Z,67.39
2019-01-23T01:55:20.512Z,67.49
2019-01-23T01:58:24.953Z,67.28
2019-01-23T02:01:29.401Z,66.87
2019-01-23T02:04:34.089Z,66.60
2019-01-23T02:07:38.540Z,66.78
2019-01-23T02:10:42.992Z,66.60
2019-01-23T02:13:47.438Z,66.53
2019-01-23T02:16:52.204Z,66.63
2019-01-23T02:19:56.926Z,66.60
2019-01-23T02:23:01.367Z,66.24
2019-01-23T02:26:06.081Z,65.41
2019-01-23T02:29:10.515Z,65.01
2019-01-23T02:32:15.240Z,65.74
2019-01-23T02:35:19.978Z,65.91
2019-01-23T02:38:24.414Z,65.55
2019-01-23T02:41:29.136Z,65.95
2019-01-23T02:44:33.851Z,65.72
2019-01-23T02:47:38.370Z,65.79
2019-01-23T02:50:43.107Z,66.04
2019-01-23T02:53:47.552Z,65.43
2019-01-23T02:56:52.005Z,66.53
2019-01-23T02:59:56.790Z,66.08
2019-01-23T03:03:02.003Z,66.34
2019-01-23T03:06:06.561Z,66.63
2019-01-23T03:09:10.986Z,67.27
2019-01-23T03:12:15.706Z,67.50
2019-01-23T03:15:20.748Z,67.76
2019-01-23T03:18:25.480Z,67.65
2019-01-23T03:21:29.929Z,67.46
2019-01-23T03:24:34.379Z,67.51
2019-01-23T03:27:39.157Z,67.71
2019-01-23T03:30:43.600Z,68.10
2019-01-23T03:33:48.433Z,67.02
2019-01-23T03:36:52.885Z,66.90
2019-01-23T03:39:57.566Z,67.39
2019-01-23T03:43:02.018Z,67.58
2019-01-23T03:46:06.926Z,68.40
2019-01-23T03:49:11.373Z,68.41
2019-01-23T03:52:15.833Z,68.94
2019-01-23T03:55:20.731Z,68.20
2019-01-23T03:58:25.190Z,68.02
2019-01-23T04:01:29.649Z,68.66
2019-01-23T04:04:34.083Z,69.27
2019-01-23T04:07:38.532Z,69.44
2019-01-23T04:10:42.979Z,69.40
2019-01-23T04:13:47.447Z,69.68
2019-01-23T04:16:52.199Z,69.05
2019-01-23T04:19:56.632Z,69.31
2019-01-23T04:23:01.088Z,68.47
2019-01-23T04:26:05.602Z,68.52
2019-01-23T04:29:10.058Z,68.19
2019-01-23T04:32:14.820Z,68.62
2019-01-23T04:35:19.438Z,68.97
2019-01-23T04:38:23.882Z,69.71
2019-01-23T04:41:28.599Z,70.47
2019-01-23T04:44:33.335Z,70.62
2019-01-23T04:47:37.789Z,70.45
2019-01-23T04:50:56.151Z,70.49
2019-01-23T04:54:01.242Z,69.70
2019-01-23T04:57:05.683Z,70.23
2019-01-23T05:00:14.856Z,70.38
2019-01-23T05:03:19.633Z,69.54
2019-01-23T05:06:24.369Z,69.68
2019-01-23T05:09:29.094Z,69.87
2019-01-23T05:12:33.550Z,69.37
2019-01-23T05:15:38.014Z,69.15
2019-01-23T05:18:42.773Z,70.15
2019-01-23T05:21:47.214Z,70.25
2019-01-23T05:24:51.931Z,71.13
2019-01-23T05:27:56.387Z,71.47
2019-01-23T05:31:01.093Z,71.89
2019-01-23T05:34:05.604Z,71.88
2019-01-23T05:37:10.049Z,71.81
2019-01-23T05:40:15.280Z,72.30
2019-01-23T05:43:19.740Z,72.22
2019-01-23T05:46:24.181Z,72.73
2019-01-23T05:49:28.957Z,72.88
2019-01-23T05:52:33.400Z,72.91
2019-01-23T05:55:37.856Z,72.69
2019-01-23T05:58:42.641Z,72.73
2019-01-23T06:01:47.216Z,70.71
2019-01-23T06:04:51.999Z,71.03
2019-01-23T06:07:56.449Z,71.42
2019-01-23T06:11:01.258Z,71.87
2019-01-23T06:14:06.500Z,72.64
2019-01-23T06:17:11.233Z,72.17
2019-01-23T06:20:21.317Z,72.15
2019-01-23T06:23:26.016Z,72.75
2019-01-23T06:26:30.472Z,73.13
2019-01-23T06:29:35.272Z,73.11
2019-01-23T06:32:39.783Z,73.20
2019-01-23T06:35:44.231Z,73.31
2019-01-23T06:38:48.949Z,72.58
2019-01-23T06:41:53.681Z,72.67
2019-01-23T06:44:58.410Z,72.92
2019-01-23T06:48:02.850Z,72.71
2019-01-23T06:51:07.568Z,72.16
2019-01-23T06:54:12.039Z,72.14
2019-01-23T06:57:16.535Z,71.21
2019-01-23T07:00:23.600Z,70.65
2019-01-23T07:03:28.038Z,69.90
2019-01-23T07:06:32.752Z,70.11
2019-01-23T07:09:37.195Z,71.01
2019-01-23T07:12:41.659Z,70.91
2019-01-23T07:15:46.438Z,69.67
2019-01-23T07:18:51.169Z,70.21
2019-01-23T07:21:55.898Z,70.41
2019-01-23T07:25:00.354Z,70.76
2019-01-23T07:28:04.863Z,70.29
2019-01-23T07:31:09.593Z,69.93
2019-01-23T07:34:14.053Z,69.76
2019-01-23T07:37:18.507Z,70.46
2019-01-23T07:40:23.260Z,71.00
2019-01-23T07:43:27.704Z,71.36
2019-01-23T07:46:32.158Z,72.03
2019-01-23T07:49:36.937Z,72.32
2019-01-23T07:52:41.971Z,72.51
2019-01-23T07:55:46.424Z,73.62
2019-01-23T07:58:50.873Z,73.21
2019-01-23T08:01:55.662Z,73.15
2019-01-23T08:05:00.195Z,72.49
2019-01-23T08:08:05.120Z,72.04
2019-01-23T08:11:09.586Z,72.70
2019-01-23T08:14:15.196Z,73.62
2019-01-23T08:17:19.668Z,74.02
2019-01-23T08:20:26.920Z,73.64
2019-01-23T08:23:31.637Z,73.78
2019-01-23T08:26:36.370Z,73.54
2019-01-23T08:29:41.100Z,72.77
2019-01-23T08:32:45.832Z,72.10
2019-01-23T08:35:50.275Z,72.81
2019-01-23T08:38:54.727Z,72.17
2019-01-23T08:41:59.511Z,71.02
2019-01-23T08:45:05.349Z,70.23
2019-01-23T08:48:10.158Z,69.34
2019-01-23T08:51:15.144Z,70.31
2019-01-23T08:54:19.876Z,71.21
2019-01-23T08:57:24.604Z,71.23
2019-01-23T09:00:29.334Z,71.61
2019-01-23T09:03:34.066Z,71.34
2019-01-23T09:06:38.797Z,71.55
2019-01-23T09:09:43.250Z,71.26
2019-01-23T09:12:47.701Z,70.44
2019-01-23T09:15:52.147Z,69.94
2019-01-23T09:18:56.900Z,69.17
2019-01-23T09:22:01.337Z,68.96
2019-01-23T09:25:10.165Z,69.01
2019-01-23T09:28:14.879Z,68.47
2019-01-23T09:31:24.033Z,68.39
2019-01-23T09:34:39.201Z,67.67
2019-01-23T09:37:57.544Z,68.25
2019-01-23T09:41:26.254Z,67.85
2019-01-23T09:44:56.773Z,68.65
2019-01-23T09:48:20.645Z,69.02
2019-01-23T09:52:18.622Z,69.38
2019-01-23T09:55:23.365Z,68.41
2019-01-23T09:58:27.821Z,66.58
2019-01-23T10:01:32.265Z,65.87
2019-01-23T10:04:36.725Z,61.57
2019-01-23T10:07:41.149Z,56.65
2019-01-23T10:10:45.591Z,50.51
2019-01-23T10:13:50.027Z,45.92
2019-01-23T10:16:54.721Z,44.57
2019-01-23T10:19:59.166Z,47.75
2019-01-23T10:23:03.679Z,52.84
2019-01-23T10:26:08.507Z,55.73
2019-01-23T10:29:13.244Z,56.00
2019-01-23T10:32:17.976Z,52.72
2019-01-23T10:35:22.706Z,48.72
2019-01-23T10:38:27.151Z,43.42
2019-01-23T10:41:31.588Z,43.75
2019-01-23T10:44:36.034Z,44.00
2019-01-23T10:47:40.456Z,42.00
2019-01-23T10:50:44.896Z,42.38
2019-01-23T10:53:49.336Z,45.20
2019-01-23T10:56:54.176Z,46.56
2019-01-23T10:59:58.616Z,48.44
2019-01-23T11:03:09.840Z,51.43
2019-01-23T11:06:09.803Z,53.39
2019-01-23T11:09:14.607Z,53.96
2019-01-23T11:12:19.068Z,55.11
2019-01-23T11:15:23.797Z,55.30
2019-01-23T11:18:28.234Z,56.73
2019-01-23T11:21:32.952Z,57.92
2019-01-23T11:24:37.676Z,57.67
2019-01-23T11:27:42.351Z,57.57
2019-01-23T11:30:46.861Z,58.52
2019-01-23T11:33:51.563Z,58.50
2019-01-23T11:36:56.296Z,58.94
2019-01-23T11:40:00.743Z,59.57
2019-01-23T11:43:05.754Z,58.44
2019-01-23T11:46:10.366Z,59.19
2019-01-23T11:49:14.821Z,57.52
2019-01-23T11:52:19.254Z,55.40
2019-01-23T11:55:23.768Z,53.37
2019-01-23T11:58:28.201Z,52.63
2019-01-23T12:01:32.907Z,51.00
2019-01-23T12:04:37.639Z,49.15
2019-01-23T12:07:42.245Z,46.47
2019-01-23T12:10:46.680Z,47.55
2019-01-23T12:13:51.117Z,47.49
2019-01-23T12:16:55.927Z,49.35
2019-01-23T12:20:00.385Z,50.12
2019-01-23T12:23:05.288Z,49.53
2019-01-23T12:26:10.140Z,47.09
2019-01-23T12:29:14.572Z,45.86
2019-01-23T12:32:19.292Z,51.51
2019-01-23T12:35:23.742Z,52.82
2019-01-23T12:38:28.166Z,54.92
2019-01-23T12:41:32.874Z,56.05
2019-01-23T12:44:37.379Z,55.43
2019-01-23T12:47:42.131Z,57.82
2019-01-23T12:50:46.867Z,58.08
2019-01-23T12:53:51.295Z,57.51
2019-01-23T12:56:55.730Z,58.36
2019-01-23T13:00:05.104Z,61.42
2019-01-23T13:03:06.809Z,62.33
2019-01-23T13:06:11.542Z,62.36
2019-01-23T13:09:16.270Z,61.65
2019-01-23T13:12:20.706Z,62.05
2019-01-23T13:15:29.096Z,60.76
2019-01-23T13:18:33.541Z,61.29
2019-01-23T13:21:38.264Z,60.28
2019-01-23T13:24:42.995Z,60.42
2019-01-23T13:27:49.005Z,59.86
2019-01-23T13:30:53.440Z,58.99
2019-01-23T13:33:57.878Z,61.02
2019-01-23T13:37:02.315Z,61.74
2019-01-23T13:40:23.236Z,60.97
2019-01-23T13:43:27.680Z,60.07
2019-01-23T13:46:32.392Z,58.77
2019-01-23T13:49:36.826Z,59.88
2019-01-23T13:52:41.439Z,60.30
2019-01-23T13:55:45.868Z,59.77
2019-01-23T13:58:50.597Z,59.81
2019-01-23T14:01:56.449Z,57.27
2019-01-23T14:05:01.152Z,57.40
2019-01-23T14:08:07.303Z,56.17
2019-01-23T14:11:12.082Z,55.89
2019-01-23T14:14:16.524Z,56.60
2019-01-23T14:17:21.241Z,58.54
2019-01-23T14:20:25.673Z,59.51
2019-01-23T14:23:30.392Z,59.75
2019-01-23T14:26:34.825Z,59.67
2019-01-23T14:29:39.271Z,60.22
2019-01-23T14:32:43.712Z,60.67
2019-01-23T14:35:48.170Z,60.37
2019-01-23T14:38:53.016Z,59.97
2019-01-23T14:41:57.447Z,60.22
2019-01-23T14:45:02.294Z,59.98
2019-01-23T14:48:06.779Z,60.33
2019-01-23T14:51:11.282Z,59.94
2019-01-23T14:54:15.719Z,61.10
2019-01-23T14:57:20.153Z,61.45
2019-01-23T15:00:30.713Z,61.05
2019-01-23T15:03:35.153Z,61.28
2019-01-23T15:06:39.896Z,61.42
2019-01-23T15:09:44.644Z,61.69
2019-01-23T15:12:49.238Z,63.11
2019-01-23T15:15:53.982Z,63.74
2019-01-23T15:18:59.201Z,64.58
2019-01-23T15:22:03.699Z,65.68
2019-01-23T15:25:09.560Z,65.38
2019-01-23T15:28:13.999Z,64.98
2019-01-23T15:31:18.428Z,64.60
2019-01-23T15:34:23.187Z,63.38
2019-01-23T15:37:27.917Z,63.62
2019-01-23T15:40:34.970Z,63.48
2019-01-23T15:43:39.414Z,63.60
2019-01-23T15:46:43.846Z,62.91
2019-01-23T15:49:48.580Z,63.01
2019-01-23T15:52:53.016Z,62.59
2019-01-23T15:55:57.454Z,63.44
2019-01-23T15:59:02.164Z,63.02
2019-01-23T16:02:06.661Z,63.46
2019-01-23T16:05:11.628Z,62.92
2019-01-23T16:08:16.055Z,63.21
2019-01-23T16:11:20.496Z,62.69
2019-01-23T16:14:25.203Z,62.17
2019-01-23T16:17:29.633Z,62.48
2019-01-23T16:20:34.147Z,62.72
2019-01-23T16:23:38.576Z,63.39
2019-01-23T16:26:43.083Z,62.93
2019-01-23T16:29:47.533Z,63.05
2019-01-23T16:32:52.252Z,63.10
2019-01-23T16:35:56.697Z,63.05
2019-01-23T16:39:01.411Z,62.80
2019-01-23T16:42:06.142Z,63.04
2019-01-23T16:45:17.530Z,63.47
2019-01-23T16:48:21.970Z,64.16
2019-01-23T16:51:26.417Z,64.51
2019-01-23T16:54:30.866Z,64.37
2019-01-23T16:57:35.548Z,64.78
2019-01-23T17:00:40.123Z,65.23
2019-01-23T17:03:45.091Z,65.65
2019-01-23T17:06:49.528Z,66.11
2019-01-23T17:09:53.968Z,65.75
2019-01-23T17:12:58.876Z,65.74
2019-01-23T17:16:03.394Z,65.82
2019-01-23T17:19:07.821Z,66.03
2019-01-23T17:22:12.264Z,66.24
2019-01-23T17:25:16.844Z,66.28
2019-01-23T17:28:21.288Z,66.26
2019-01-23T17:31:26.030Z,66.01
2019-01-23T17:34:30.464Z,65.72
2019-01-23T17:37:35.198Z,65.97
2019-01-23T17:40:39.654Z,66.48
2019-01-23T17:43:44.358Z,66.32
2019-01-23T17:46:49.376Z,66.13
2019-01-23T17:49:53.807Z,66.07
2019-01-23T17:52:58.281Z,66.62
2019-01-23T17:56:02.737Z,66.44
2019-01-23T17:59:07.752Z,66.62
2019-01-23T18:02:12.515Z,66.95
2019-01-23T18:05:17.245Z,67.03
2019-01-23T18:08:21.683Z,67.38
2019-01-23T18:11:26.407Z,66.87
2019-01-23T18:14:30.836Z,66.60
2019-01-23T18:17:35.277Z,66.19
2019-01-23T18:20:39.978Z,66.31
2019-01-23T18:23:44.814Z,65.86
2019-01-23T18:26:49.545Z,65.60
2019-01-23T18:29:54.276Z,65.67
2019-01-23T18:33:00.277Z,65.77
2019-01-23T18:36:36.506Z,65.60
2019-01-23T18:40:00.246Z,65.36
2019-01-23T18:43:36.341Z,65.64
2019-01-23T18:47:11.121Z,65.84
2019-01-23T18:50:37.935Z,64.89
2019-01-23T18:53:42.378Z,65.66
2019-01-23T18:56:47.083Z,65.36
2019-01-23T18:59:51.917Z,64.84
2019-01-23T19:02:56.759Z,65.02
2019-01-23T19:06:01.197Z,65.44
2019-01-23T19:09:09.102Z,65.19
2019-01-23T19:12:13.630Z,64.92
2019-01-23T19:15:21.119Z,65.05
2019-01-23T19:18:25.868Z,65.13
2019-01-23T19:21:30.308Z,66.00
2019-01-23T19:24:36.542Z,66.99
2019-01-23T19:27:41.603Z,66.60
2019-01-23T19:30:46.411Z,66.48
2019-01-23T19:33:51.245Z,65.93
2019-01-23T19:36:55.724Z,65.83
2019-01-23T19:40:00.488Z,65.58
2019-01-23T19:43:06.872Z,66.03
2019-01-23T19:46:11.496Z,66.04
2019-01-23T19:49:16.316Z,65.79
2019-01-23T19:52:21.107Z,65.36
2019-01-23T19:55:25.532Z,65.31
2019-01-23T19:58:29.966Z,65.17
2019-01-23T20:01:34.723Z,65.23
2019-01-23T20:04:39.457Z,65.01
2019-01-23T20:07:44.493Z,65.28
2019-01-23T20:10:48.927Z,65.15
2019-01-23T20:13:53.645Z,65.58
2019-01-23T20:16:58.377Z,65.43
2019-01-23T20:20:03.231Z,65.92
2019-01-23T20:23:07.943Z,65.50
2019-01-23T20:26:12.417Z,65.68
2019-01-23T20:29:16.873Z,66.65
2019-01-23T20:32:21.314Z,65.76
2019-01-23T20:35:25.769Z,65.78
2019-01-23T20:38:30.473Z,67.58
2019-01-23T20:41:34.908Z,67.59
2019-01-23T20:44:39.625Z,69.03
2019-01-23T20:47:44.060Z,70.29
2019-01-23T20:50:48.509Z,69.76
2019-01-23T20:53:52.969Z,70.93
2019-01-23T20:56:57.418Z,71.61
2019-01-23T21:00:02.155Z,71.78
2019-01-23T21:03:06.685Z,71.58
2019-01-23T21:06:11.673Z,71.67
2019-01-23T21:09:16.171Z,71.61
2019-01-23T21:12:20.636Z,71.43
2019-01-23T21:15:30.642Z,71.98
2019-01-23T21:18:35.350Z,71.98
2019-01-23T21:21:40.079Z,72.32
2019-01-23T21:24:44.812Z,72.42
2019-01-23T21:27:49.546Z,73.21
2019-01-23T21:30:54.000Z,72.82
2019-01-23T21:33:58.441Z,73.20
2019-01-23T21:37:03.227Z,72.98
2019-01-23T21:40:21.136Z,73.36
2019-01-23T21:43:25.578Z,72.88
2019-01-23T21:46:30.031Z,72.24
2019-01-23T21:49:34.742Z,72.97
2019-01-23T21:52:39.192Z,73.04
2019-01-23T21:55:43.647Z,73.48
2019-01-23T21:58:48.088Z,73.41
2019-01-23T22:01:52.542Z,73.49
2019-01-23T22:04:57.000Z,73.37
2019-01-23T22:08:01.697Z,72.87
2019-01-23T22:11:06.424Z,73.91
2019-01-23T22:14:10.866Z,73.19
2019-01-23T22:17:15.322Z,72.69
2019-01-23T22:20:21.987Z,73.32
2019-01-23T22:23:26.779Z,74.28
2019-01-23T22:26:31.229Z,73.74
2019-01-23T22:29:35.941Z,73.06
2019-01-23T22:32:40.662Z,72.17
2019-01-23T22:35:45.110Z,73.20
2019-01-23T22:38:49.553Z,73.72
2019-01-23T22:41:54.345Z,73.94
2019-01-23T22:44:59.076Z,74.04
2019-01-23T22:48:03.699Z,72.72
2019-01-23T22:51:08.147Z,73.74
2019-01-23T22:54:12.587Z,74.03
2019-01-23T22:57:17.065Z,73.32
2019-01-23T23:00:39.760Z,73.92
2019-01-23T23:03:44.660Z,73.79
2019-01-23T23:06:49.396Z,73.33
2019-01-23T23:09:53.838Z,73.52
2019-01-23T23:12:58.551Z,73.88
2019-01-23T23:16:02.994Z,72.98
2019-01-23T23:19:07.443Z,73.58
2019-01-23T23:22:11.887Z,74.21
2019-01-23T23:25:16.467Z,74.06
2019-01-23T23:28:25.922Z,74.33
2019-01-23T23:31:27.100Z,74.12
2019-01-23T23:34:31.547Z,74.58
2019-01-23T23:37:36.082Z,74.76
2019-01-23T23:40:40.819Z,75.27
2019-01-23T23:43:45.549Z,74.69
2019-01-23T23:46:50.283Z,74.13
2019-01-23T23:49:55.034Z,74.19
2019-01-23T23:52:59.482Z,73.80
2019-01-23T23:56:03.927Z,73.70
2019-01-23T23:59:08.691Z,73.66
